Portada
METAR-TAF:

METAR-TAF

Aeroports :

Wadi ad-Dawasir, Aràbia Saudita

latitud: 20-30N, longitud: 045-12E, altitud: 624 m

Observació

L'informe es va fer fa 34 minuts, a les 14:00 UTC
Vent 6 kt del Oest
Temperatura 31°C
Humitat 21%
Pressió 1013 hPa
Visibilitat 10 km o més
sense núvols per sota de 1500 mi sense presència de cumulonimbus.

METAR: OEWD 241400Z 28006KT CAVOK 31/06 Q1013 NOSIG

Hora: 17:34 (14:34 UTC)

Pronòstic

L'informe es va fer fa 3 hores i 34 minuts, a les 11:00 UTC
Pronòstic vàlid del 24 a les 12 UTC al 25 a les 18 UTC
Vent 10 kt del Nord-Est
Visibilitat 10 km o més
sense núvols per sota de 1500 mi sense presència de cumulonimbus.
Evolucionant progressivament
l' 24 a les 18 UTC al 24 a les 20 UTC
Vent 3 kt amb direcció variable

TAF: OEWD 241100Z 2412/2518 04010KT CAVOK BECMG 2418/2420 VRB03KT

Observacions i pronòstics meteorològics de més de 4000 aeroports (METAR i TAF).

Les estacions disponibles són els punts grocs i vermells al mapa.

Posi el ratolí al punt desitjat per veure el nom de l'estació.

Feu clic per veure les observacions i els pronòstics meteorològics.

Per canviar el mapa: feu clic els botons verds amb una creu de color negre per apropar; al botó verd amb un guió per allunyar la imatge; o en les fletxes verdes per a mapes adjacents.


METAR-TAF: